Time;durP1;ratioP1;P1;durP2;ratioP2;P2;SDS_P1;SDS_P2;PMS_P1;PMS_P2;Temp;Humidity;BMP_temperature;BMP_pressure;BME280_temperature;BME280_humidity;BME280_pressure;Samples;Min_cycle;Max_cycle;Signal;HPM_P1;HPM_P2
2023/10/04 00:01:36;;;;;;;5.97;1.40;;;;;;;;;;4954320;28;20067;-64
2023/10/04 00:04:03;;;;;;;8.80;1.48;;;;;;;;;;4954151;28;20401;-65
2023/10/04 00:06:31;;;;;;;4.47;1.17;;;;;;;;;;4954159;28;20082;-63
2023/10/04 00:08:56;;;;;;;7.10;1.65;;;;;;;;;;4966649;28;20049;-63
2023/10/04 00:11:22;;;;;;;10.18;1.83;;;;;;;;;;4973733;28;20105;-63
2023/10/04 00:13:47;;;;;;;9.23;2.00;;;;;;;;;;4973391;28;20023;-66
2023/10/04 00:16:13;;;;;;;6.43;1.50;;;;;;;;;;4973376;28;20019;-67
2023/10/04 00:18:38;;;;;;;7.25;1.55;;;;;;;;;;4976506;28;20028;-64
2023/10/04 00:23:39;;;;;;;5.47;1.23;;;;;;;;;;5513258;23;20051;-62
2023/10/04 00:26:07;;;;;;;5.85;1.40;;;;;;;;;;4974196;28;20030;-62
2023/10/04 00:28:37;;;;;;;4.13;1.40;;;;;;;;;;4981865;28;20030;-68
2023/10/04 00:31:03;;;;;;;8.95;1.60;;;;;;;;;;4992821;28;20027;-67
2023/10/04 00:33:28;;;;;;;3.10;1.33;;;;;;;;;;4976449;28;20545;-66
2023/10/04 00:35:54;;;;;;;3.17;1.10;;;;;;;;;;4976509;28;20023;-67
2023/10/04 00:38:20;;;;;;;6.25;1.52;;;;;;;;;;4976377;28;20035;-67
2023/10/04 00:40:47;;;;;;;7.88;1.25;;;;;;;;;;4974927;28;20387;-68
2023/10/04 00:43:15;;;;;;;7.50;1.55;;;;;;;;;;4994668;28;20117;-68
2023/10/04 00:45:47;;;;;;;4.28;1.15;;;;;;;;;;4995831;28;20399;-69
2023/10/04 00:48:18;;;;;;;4.97;1.92;;;;;;;;;;4995846;28;20022;-68
2023/10/04 00:50:44;;;;;;;5.85;1.35;;;;;;;;;;4995948;28;20026;-68
2023/10/04 00:53:10;;;;;;;8.73;1.63;;;;;;;;;;4995500;28;20033;-69
2023/10/04 00:55:39;;;;;;;6.88;1.60;;;;;;;;;;4995750;28;20034;-68
2023/10/04 00:58:06;;;;;;;8.18;1.70;;;;;;;;;;4980821;28;20027;-68
2023/10/04 01:00:32;;;;;;;7.28;1.50;;;;;;;;;;4976165;28;20034;-68
2023/10/04 01:02:57;;;;;;;8.68;1.75;;;;;;;;;;4976127;28;20023;-68
2023/10/04 01:05:26;;;;;;;4.43;1.20;;;;;;;;;;4976185;28;20110;-68
2023/10/04 01:07:53;;;;;;;5.43;1.27;;;;;;;;;;4974341;28;20548;-67
2023/10/04 01:10:21;;;;;;;9.63;1.70;;;;;;;;;;4986793;28;20379;-68
2023/10/04 01:12:49;;;;;;;7.72;1.75;;;;;;;;;;4995069;28;20045;-68
2023/10/04 01:15:31;;;;;;;5.28;1.55;;;;;;;;;;4995218;28;20062;-68
2023/10/04 01:18:00;;;;;;;7.82;1.75;;;;;;;;;;4995091;28;20034;-69
2023/10/04 01:20:30;;;;;;;5.88;1.50;;;;;;;;;;4995011;28;20092;-69
2023/10/04 01:23:00;;;;;;;6.37;1.53;;;;;;;;;;4994970;28;20058;-65
2023/10/04 01:25:28;;;;;;;5.97;1.48;;;;;;;;;;4989870;28;20031;-68
2023/10/04 01:27:54;;;;;;;5.70;1.40;;;;;;;;;;4975109;28;20027;-67
2023/10/04 01:30:19;;;;;;;4.75;1.40;;;;;;;;;;4975466;28;20023;-68
2023/10/04 01:32:44;;;;;;;14.38;2.33;;;;;;;;;;4971031;28;20469;-67
2023/10/04 01:35:12;;;;;;;6.63;1.70;;;;;;;;;;4956097;28;20024;-68
2023/10/04 01:37:39;;;;;;;7.10;1.80;;;;;;;;;;4969159;28;20073;-67
2023/10/04 01:40:12;;;;;;;4.38;1.50;;;;;;;;;;4975385;28;20047;-68
2023/10/04 01:42:41;;;;;;;5.60;1.65;;;;;;;;;;4975452;28;20221;-67
2023/10/04 01:45:11;;;;;;;5.20;1.83;;;;;;;;;;4975435;28;20030;-68
2023/10/04 01:47:38;;;;;;;4.80;1.40;;;;;;;;;;4975284;28;20166;-65
2023/10/04 01:50:06;;;;;;;5.25;1.90;;;;;;;;;;4974901;28;20074;-68
2023/10/04 01:52:31;;;;;;;6.30;1.70;;;;;;;;;;4975107;28;20549;-67
2023/10/04 01:54:58;;;;;;;4.50;1.50;;;;;;;;;;4975116;28;20031;-67
2023/10/04 01:57:23;;;;;;;6.68;1.90;;;;;;;;;;4975089;28;20471;-63
2023/10/04 01:59:49;;;;;;;10.40;1.70;;;;;;;;;;4975047;28;20035;-63
2023/10/04 02:02:15;;;;;;;5.80;1.88;;;;;;;;;;4974850;28;20024;-63
2023/10/04 02:04:40;;;;;;;8.23;1.65;;;;;;;;;;4993209;28;20041;-62
2023/10/04 02:07:06;;;;;;;8.57;1.70;;;;;;;;;;4994425;28;20022;-63
2023/10/04 02:09:31;;;;;;;9.23;1.70;;;;;;;;;;4994345;28;20483;-63
2023/10/04 02:11:56;;;;;;;10.80;1.55;;;;;;;;;;4979592;28;20035;-62
2023/10/04 02:14:22;;;;;;;8.18;1.52;;;;;;;;;;4974619;28;20065;-63
2023/10/04 02:16:49;;;;;;;4.63;1.88;;;;;;;;;;4974901;28;20386;-63
2023/10/04 02:19:14;;;;;;;9.45;2.38;;;;;;;;;;4974581;28;20110;-62
2023/10/04 02:21:40;;;;;;;7.10;1.50;;;;;;;;;;4974636;28;20106;-63
2023/10/04 02:24:06;;;;;;;7.55;1.60;;;;;;;;;;4974446;28;20055;-63
2023/10/04 02:26:35;;;;;;;10.63;2.08;;;;;;;;;;4974501;28;20031;-63
2023/10/04 02:29:01;;;;;;;8.02;2.00;;;;;;;;;;4974588;28;20114;-63
2023/10/04 02:31:29;;;;;;;5.93;1.67;;;;;;;;;;4974487;28;20110;-63
2023/10/04 02:33:54;;;;;;;6.85;2.08;;;;;;;;;;4974212;28;20122;-62
2023/10/04 02:36:20;;;;;;;6.68;1.65;;;;;;;;;;4974478;28;20437;-62
2023/10/04 02:38:46;;;;;;;6.90;2.10;;;;;;;;;;4974520;28;20039;-63
2023/10/04 02:41:12;;;;;;;6.43;1.67;;;;;;;;;;4973654;28;20027;-63
2023/10/04 02:43:37;;;;;;;8.80;1.90;;;;;;;;;;4974008;28;20033;-64
2023/10/04 02:46:03;;;;;;;7.90;2.17;;;;;;;;;;4974323;28;20027;-64
2023/10/04 02:48:31;;;;;;;11.00;1.90;;;;;;;;;;4974153;28;20027;-63
2023/10/04 02:50:57;;;;;;;7.50;1.92;;;;;;;;;;4973701;28;20542;-63
2023/10/04 02:53:25;;;;;;;4.25;1.45;;;;;;;;;;4977325;28;20038;-62
2023/10/04 02:55:55;;;;;;;6.32;1.98;;;;;;;;;;4974148;28;20037;-63
2023/10/04 02:58:21;;;;;;;5.28;1.58;;;;;;;;;;4974182;28;20031;-63
2023/10/04 03:00:49;;;;;;;5.75;1.80;;;;;;;;;;4974343;28;20042;-64
2023/10/04 03:03:19;;;;;;;8.40;1.95;;;;;;;;;;4980541;28;20475;-64
2023/10/04 03:05:45;;;;;;;8.68;1.88;;;;;;;;;;4993377;28;20030;-62
2023/10/04 03:08:11;;;;;;;8.57;1.77;;;;;;;;;;4993329;28;20034;-63
2023/10/04 03:10:40;;;;;;;7.60;1.75;;;;;;;;;;4985060;28;20051;-64
2023/10/04 03:13:15;;;;;;;6.53;1.77;;;;;;;;;;4954553;28;20045;-63
2023/10/04 03:15:40;;;;;;;6.47;1.30;;;;;;;;;;4954655;29;20031;-63
2023/10/04 03:18:25;;;;;;;8.35;1.83;;;;;;;;;;4954317;29;20041;-63
2023/10/04 03:23:35;;;;;;;7.25;1.63;;;;;;;;;;4954490;28;20134;-62
2023/10/04 03:26:04;;;;;;;6.85;1.80;;;;;;;;;;4965725;28;20039;-64
2023/10/04 03:28:34;;;;;;;7.68;1.80;;;;;;;;;;4973686;28;20035;-63
2023/10/04 03:31:04;;;;;;;7.40;1.73;;;;;;;;;;4972235;28;20182;-64
2023/10/04 03:33:33;;;;;;;4.10;1.58;;;;;;;;;;4973636;28;20035;-63
2023/10/04 03:35:59;;;;;;;10.05;1.77;;;;;;;;;;4973683;28;20033;-62
2023/10/04 03:38:33;;;;;;;6.85;1.40;;;;;;;;;;4973773;28;20081;-64
2023/10/04 03:40:58;;;;;;;9.00;1.70;;;;;;;;;;4973643;28;20042;-63
2023/10/04 03:43:24;;;;;;;8.80;2.25;;;;;;;;;;4973783;28;20027;-63
2023/10/04 03:45:50;;;;;;;9.55;2.17;;;;;;;;;;4973361;28;20499;-63
2023/10/04 03:48:16;;;;;;;5.00;1.63;;;;;;;;;;4973777;28;20027;-63
2023/10/04 03:50:51;;;;;;;6.38;1.50;;;;;;;;;;4974032;28;20019;-64
2023/10/04 03:53:21;;;;;;;5.20;1.60;;;;;;;;;;4977342;28;20616;-67
2023/10/04 03:55:47;;;;;;;6.00;1.38;;;;;;;;;;4977018;28;20031;-64
2023/10/04 03:58:15;;;;;;;8.10;1.52;;;;;;;;;;4977013;28;20089;-63
2023/10/04 04:00:41;;;;;;;4.05;1.42;;;;;;;;;;4976989;28;20031;-62
2023/10/04 04:03:08;;;;;;;8.60;2.05;;;;;;;;;;4982851;28;20036;-64
2023/10/04 04:05:38;;;;;;;5.50;1.33;;;;;;;;;;4996330;28;20481;-62
2023/10/04 04:08:04;;;;;;;;;;;;;;;;;;4997153;28;20026;-68
2023/10/04 04:10:31;;;;;;;7.57;2.20;;;;;;;;;;4993067;28;20024;-68
2023/10/04 04:13:01;;;;;;;4.65;1.60;;;;;;;;;;4976977;28;20031;-68
2023/10/04 04:15:27;;;;;;;6.10;1.42;;;;;;;;;;4976757;28;20034;-69
2023/10/04 04:17:53;;;;;;;6.40;1.67;;;;;;;;;;4980988;28;20049;-68
2023/10/04 04:20:19;;;;;;;11.05;1.75;;;;;;;;;;4996363;28;20467;-69
2023/10/04 04:22:51;;;;;;;7.43;1.85;;;;;;;;;;4996218;28;20034;-68
2023/10/04 04:25:23;;;;;;;8.13;1.55;;;;;;;;;;4990292;28;20538;-69
2023/10/04 04:27:50;;;;;;;5.95;1.55;;;;;;;;;;4976556;28;20039;-69
2023/10/04 04:30:28;;;;;;;7.35;1.85;;;;;;;;;;4976349;28;20034;-70
2023/10/04 04:32:56;;;;;;;4.32;1.45;;;;;;;;;;4957276;28;20020;-69
2023/10/04 04:35:47;;;;;;;6.03;1.30;;;;;;;;;;4957261;28;20106;-65
2023/10/04 04:38:14;;;;;;;6.05;1.52;;;;;;;;;;4957020;28;20413;-69
2023/10/04 04:40:44;;;;;;;4.75;1.30;;;;;;;;;;4970795;28;20368;-68
2023/10/04 04:45:53;;;;;;;8.30;1.77;;;;;;;;;;4988128;28;20034;-66
2023/10/04 04:48:24;;;;;;;9.07;1.77;;;;;;;;;;4979876;28;20097;-69
2023/10/04 04:50:54;;;;;;;9.48;1.65;;;;;;;;;;4964771;28;20069;-71
2023/10/04 04:53:27;;;;;;;5.57;1.80;;;;;;;;;;4987618;28;20082;-67
2023/10/04 04:55:53;;;;;;;5.25;1.48;;;;;;;;;;4988281;28;20085;-69
2023/10/04 04:58:22;;;;;;;9.68;1.67;;;;;;;;;;4979439;28;20025;-70
2023/10/04 05:00:55;;;;;;;10.15;3.60;;;;;;;;;;4964094;28;20069;-68
2023/10/04 05:03:20;;;;;;;9.10;1.50;;;;;;;;;;4986742;28;20053;-70
2023/10/04 05:05:49;;;;;;;8.38;1.90;;;;;;;;;;4987354;28;20479;-66
2023/10/04 05:08:18;;;;;;;7.25;2.00;;;;;;;;;;4980050;28;20067;-68
2023/10/04 05:10:45;;;;;;;8.05;1.65;;;;;;;;;;4978088;28;20034;-67
2023/10/04 05:13:14;;;;;;;8.00;1.52;;;;;;;;;;4975118;28;20034;-66
2023/10/04 05:15:43;;;;;;;6.18;1.48;;;;;;;;;;4974878;28;20499;-67
2023/10/04 05:18:15;;;;;;;6.60;1.92;;;;;;;;;;4974935;28;20507;-65
2023/10/04 05:20:45;;;;;;;8.05;1.90;;;;;;;;;;4975987;28;20041;-67
2023/10/04 05:23:11;;;;;;;6.00;1.35;;;;;;;;;;4975478;28;20051;-69
2023/10/04 05:25:36;;;;;;;7.72;1.75;;;;;;;;;;4975510;28;20034;-69
2023/10/04 05:28:09;;;;;;;5.05;1.48;;;;;;;;;;4975803;28;20110;-65
2023/10/04 05:30:35;;;;;;;5.47;1.50;;;;;;;;;;4975583;28;20034;-68
2023/10/04 05:33:01;;;;;;;5.15;1.52;;;;;;;;;;4974455;28;20046;-63
2023/10/04 05:35:26;;;;;;;6.30;1.67;;;;;;;;;;4973619;28;20403;-70
2023/10/04 05:37:52;;;;;;;7.68;1.48;;;;;;;;;;4974322;28;20102;-66
2023/10/04 05:40:25;;;;;;;7.00;1.75;;;;;;;;;;4974272;28;20495;-68
2023/10/04 05:42:51;;;;;;;4.63;1.20;;;;;;;;;;4973509;28;20050;-69
2023/10/04 05:45:16;;;;;;;5.35;1.20;;;;;;;;;;4974472;28;20077;-70
2023/10/04 05:47:42;;;;;;;7.43;1.63;;;;;;;;;;4975086;28;20379;-68
2023/10/04 05:50:10;;;;;;;5.57;1.33;;;;;;;;;;4975240;28;20027;-67
2023/10/04 05:52:37;;;;;;;5.35;1.83;;;;;;;;;;4975199;28;20041;-67
2023/10/04 05:55:03;;;;;;;4.72;1.48;;;;;;;;;;4975130;28;20031;-67
2023/10/04 05:57:29;;;;;;;4.60;1.50;;;;;;;;;;4974864;28;20527;-67
2023/10/04 05:59:55;;;;;;;4.75;2.05;;;;;;;;;;4975064;28;20027;-67
2023/10/04 06:02:22;;;;;;;5.43;1.40;;;;;;;;;;4974658;28;20081;-67
2023/10/04 06:04:48;;;;;;;10.43;1.70;;;;;;;;;;4973680;28;20384;-69
2023/10/04 06:07:14;;;;;;;5.80;1.45;;;;;;;;;;4974810;28;20027;-67
2023/10/04 06:09:42;;;;;;;5.75;1.63;;;;;;;;;;4975007;28;20484;-69
2023/10/04 06:12:11;;;;;;;8.27;1.92;;;;;;;;;;4974397;28;20085;-67
2023/10/04 06:14:36;;;;;;;6.55;1.60;;;;;;;;;;4974531;28;20121;-68
2023/10/04 06:17:04;;;;;;;5.18;1.80;;;;;;;;;;4974866;28;20106;-67
2023/10/04 06:19:30;;;;;;;4.65;1.33;;;;;;;;;;4974810;28;20480;-65
2023/10/04 06:21:56;;;;;;;6.50;1.67;;;;;;;;;;4974510;28;20026;-65
2023/10/04 06:24:22;;;;;;;6.78;1.65;;;;;;;;;;4974500;28;20092;-62
2023/10/04 06:26:48;;;;;;;3.90;1.60;;;;;;;;;;4974088;28;20039;-64
2023/10/04 06:29:14;;;;;;;6.15;1.40;;;;;;;;;;4974808;28;20029;-62
2023/10/04 06:31:40;;;;;;;5.20;1.48;;;;;;;;;;4974416;28;20042;-66
2023/10/04 06:34:06;;;;;;;4.00;1.40;;;;;;;;;;4974531;28;20030;-66
2023/10/04 06:36:31;;;;;;;2.97;1.50;;;;;;;;;;4974549;28;20034;-67
2023/10/04 06:38:56;;;;;;;8.13;2.50;;;;;;;;;;4974469;28;20084;-66
2023/10/04 06:41:25;;;;;;;5.93;1.50;;;;;;;;;;4974432;28;20058;-64
2023/10/04 06:43:51;;;;;;;7.55;1.77;;;;;;;;;;4974244;28;20392;-63
2023/10/04 06:46:17;;;;;;;6.60;1.50;;;;;;;;;;4974364;28;20023;-70
2023/10/04 06:48:43;;;;;;;9.85;4.57;;;;;;;;;;4974232;28;20031;-65
2023/10/04 06:51:09;;;;;;;9.38;2.20;;;;;;;;;;4974385;28;20026;-66
2023/10/04 06:53:35;;;;;;;7.68;1.63;;;;;;;;;;4974079;28;20502;-66
2023/10/04 06:56:01;;;;;;;8.45;2.20;;;;;;;;;;4975443;28;20027;-67
2023/10/04 06:58:27;;;;;;;5.57;1.58;;;;;;;;;;4968175;28;20038;-68
2023/10/04 07:00:52;;;;;;;5.03;1.52;;;;;;;;;;4970859;28;20110;-67
2023/10/04 07:03:17;;;;;;;11.57;2.25;;;;;;;;;;4973843;28;20022;-68
2023/10/04 07:05:44;;;;;;;5.78;1.80;;;;;;;;;;4973766;28;20344;-68
2023/10/04 07:08:15;;;;;;;9.77;1.67;;;;;;;;;;4974759;28;20023;-67
2023/10/04 07:10:43;;;;;;;5.95;1.50;;;;;;;;;;4973520;28;20031;-66
2023/10/04 07:13:08;;;;;;;11.25;1.90;;;;;;;;;;4973534;28;20423;-68
2023/10/04 07:15:41;;;;;;;7.32;1.92;;;;;;;;;;4973777;28;20027;-68
2023/10/04 07:18:09;;;;;;;4.10;1.40;;;;;;;;;;4974524;28;20053;-66
2023/10/04 07:20:36;;;;;;;4.90;1.50;;;;;;;;;;4973646;28;20449;-68
2023/10/04 07:23:07;;;;;;;7.18;1.42;;;;;;;;;;4971814;28;20381;-65
2023/10/04 07:25:34;;;;;;;7.97;1.80;;;;;;;;;;4973746;28;20090;-69
2023/10/04 07:28:02;;;;;;;6.75;1.52;;;;;;;;;;4997445;28;20026;-64
2023/10/04 07:30:27;;;;;;;6.63;1.50;;;;;;;;;;4996232;28;20566;-65
2023/10/04 07:32:53;;;;;;;6.47;1.30;;;;;;;;;;4977982;28;20121;-64
2023/10/04 07:35:23;;;;;;;8.48;1.65;;;;;;;;;;4977505;28;20109;-64
2023/10/04 07:37:49;;;;;;;5.82;1.33;;;;;;;;;;4977431;28;20027;-63
2023/10/04 07:40:16;;;;;;;4.80;1.35;;;;;;;;;;4977376;28;20030;-67
2023/10/04 07:42:47;;;;;;;6.32;1.70;;;;;;;;;;4976231;28;20376;-68
2023/10/04 07:45:13;;;;;;;;;;;;;;;;;;4977669;28;20038;-69
2023/10/04 07:47:43;;;;;;;12.98;2.08;;;;;;;;;;4977397;28;20438;-67
2023/10/04 07:50:14;;;;;;;6.18;1.70;;;;;;;;;;4977377;28;20031;-68
2023/10/04 07:52:41;;;;;;;7.20;1.40;;;;;;;;;;4977288;28;20387;-68
2023/10/04 07:55:14;;;;;;;7.95;2.22;;;;;;;;;;4976959;28;20345;-63
2023/10/04 07:57:47;;;;;;;6.70;1.40;;;;;;;;;;4977242;28;20027;-64
2023/10/04 08:00:14;;;;;;;3.28;1.40;;;;;;;;;;4977047;28;20177;-62
2023/10/04 08:02:52;;;;;;;5.93;1.50;;;;;;;;;;4977043;28;20046;-63
2023/10/04 08:05:26;;;;;;;8.13;1.40;;;;;;;;;;4957630;28;20042;-62
2023/10/04 08:07:54;;;;;;;9.43;1.95;;;;;;;;;;4965897;28;20027;-65
2023/10/04 08:10:23;;;;;;;6.65;1.80;;;;;;;;;;4976777;28;20542;-63
2023/10/04 08:12:53;;;;;;;9.93;1.85;;;;;;;;;;4976725;28;20039;-65
2023/10/04 08:15:20;;;;;;;7.55;1.70;;;;;;;;;;4976825;28;20364;-63
2023/10/04 08:17:49;;;;;;;5.75;1.70;;;;;;;;;;4976866;28;20449;-65
2023/10/04 08:20:15;;;;;;;2.47;1.10;;;;;;;;;;4976748;28;20019;-62
2023/10/04 08:22:41;;;;;;;10.40;1.67;;;;;;;;;;4976306;28;20492;-64
2023/10/04 08:25:17;;;;;;;5.75;1.50;;;;;;;;;;4976535;28;20058;-66
2023/10/04 08:27:44;;;;;;;5.45;1.35;;;;;;;;;;4976872;28;20029;-62
2023/10/04 08:30:11;;;;;;;5.80;1.50;;;;;;;;;;4976767;28;20023;-64
2023/10/04 08:32:37;;;;;;;8.45;1.95;;;;;;;;;;4976368;28;20022;-64
2023/10/04 08:35:03;;;;;;;3.33;1.42;;;;;;;;;;4976384;28;20487;-64
2023/10/04 08:37:29;;;;;;;8.60;1.90;;;;;;;;;;4974958;28;20061;-63
2023/10/04 08:39:55;;;;;;;8.05;2.13;;;;;;;;;;4976265;28;20433;-66
2023/10/04 08:42:22;;;;;;;5.97;1.95;;;;;;;;;;4976291;28;20158;-64
2023/10/04 08:44:49;;;;;;;6.78;1.50;;;;;;;;;;4976306;28;20027;-62
2023/10/04 08:47:16;;;;;;;8.77;4.28;;;;;;;;;;4976279;28;20085;-64
2023/10/04 08:49:53;;;;;;;8.68;1.70;;;;;;;;;;4976219;28;20039;-64
2023/10/04 08:52:35;;;;;;;6.18;1.80;;;;;;;;;;4976146;28;20023;-66
2023/10/04 08:55:10;;;;;;;9.18;1.77;;;;;;;;;;4975840;28;20380;-66
2023/10/04 08:57:38;;;;;;;6.97;1.90;;;;;;;;;;4975341;28;20027;-65
2023/10/04 09:00:14;;;;;;;6.40;1.63;;;;;;;;;;4975861;28;20045;-65
2023/10/04 09:02:45;;;;;;;11.60;1.60;;;;;;;;;;4975895;28;20086;-65
2023/10/04 09:05:15;;;;;;;;;;;;;;;;;;4976266;28;20392;-66
2023/10/04 09:07:42;;;;;;;7.40;1.85;;;;;;;;;;4981726;28;20016;-66
2023/10/04 09:10:15;;;;;;;7.50;1.92;;;;;;;;;;4980471;28;20034;-63
2023/10/04 09:12:41;;;;;;;4.43;1.60;;;;;;;;;;4993522;28;20023;-62
2023/10/04 09:15:07;;;;;;;6.28;1.75;;;;;;;;;;4991566;28;20392;-62
2023/10/04 09:17:56;;;;;;;8.38;1.83;;;;;;;;;;4975619;28;20110;-63
2023/10/04 09:20:29;;;;;;;8.32;2.17;;;;;;;;;;4975087;28;20027;-63
2023/10/04 09:22:54;;;;;;;10.70;2.40;;;;;;;;;;4975348;28;20047;-62
2023/10/04 09:25:20;;;;;;;10.10;2.00;;;;;;;;;;4985904;28;20042;-64
2023/10/04 09:27:55;;;;;;;9.40;2.25;;;;;;;;;;4973892;28;20031;-63
2023/10/04 09:30:22;;;;;;;11.77;2.40;;;;;;;;;;4975311;28;20038;-63
2023/10/04 09:32:47;;;;;;;9.95;2.28;;;;;;;;;;4994272;28;20383;-63
2023/10/04 09:35:13;;;;;;;5.00;1.60;;;;;;;;;;4994619;28;20034;-64
2023/10/04 09:37:44;;;;;;;6.35;1.67;;;;;;;;;;4980574;28;20060;-62
2023/10/04 09:40:12;;;;;;;9.10;2.20;;;;;;;;;;4975247;28;20023;-62
2023/10/04 09:42:51;;;;;;;5.03;1.90;;;;;;;;;;4993908;28;20378;-63
2023/10/04 09:45:20;;;;;;;8.52;1.90;;;;;;;;;;4993333;28;20479;-64
2023/10/04 09:47:46;;;;;;;4.45;1.55;;;;;;;;;;4994322;28;20033;-63
2023/10/04 09:50:23;;;;;;;8.15;2.50;;;;;;;;;;4994253;28;20034;-62
2023/10/04 09:52:52;;;;;;;10.20;2.03;;;;;;;;;;4994378;28;20018;-61
2023/10/04 09:55:20;;;;;;;7.43;2.00;;;;;;;;;;4979137;28;20070;-61
2023/10/04 09:57:48;;;;;;;10.27;2.53;;;;;;;;;;4974944;28;20035;-62
2023/10/04 10:00:22;;;;;;;6.65;1.75;;;;;;;;;;4974765;28;20031;-63
2023/10/04 10:02:51;;;;;;;7.85;2.10;;;;;;;;;;4974473;28;20142;-64
2023/10/04 10:05:40;;;;;;;10.65;2.17;;;;;;;;;;4974793;28;20034;-62
2023/10/04 10:08:11;;;;;;;8.77;1.85;;;;;;;;;;4975704;28;20031;-63
2023/10/04 10:10:37;;;;;;;7.70;1.88;;;;;;;;;;4974693;28;20089;-62
2023/10/04 10:13:05;;;;;;;8.43;2.03;;;;;;;;;;4974598;28;20170;-62
2023/10/04 10:15:31;;;;;;;7.82;2.20;;;;;;;;;;4983295;28;20387;-62
2023/10/04 10:17:59;;;;;;;9.00;2.17;;;;;;;;;;4993790;28;20026;-66
2023/10/04 10:20:24;;;;;;;9.60;2.60;;;;;;;;;;4993885;28;20034;-66
2023/10/04 10:22:59;;;;;;;5.18;1.83;;;;;;;;;;4993589;28;20018;-63
2023/10/04 10:25:25;;;;;;;11.00;2.65;;;;;;;;;;4987002;28;20023;-63
2023/10/04 10:27:56;;;;;;;7.47;1.63;;;;;;;;;;4974560;28;20037;-63
2023/10/04 10:30:23;;;;;;;;;;;;;;;;;;4974934;28;20031;-62
2023/10/04 10:32:55;;;;;;;5.25;1.75;;;;;;;;;;4993179;28;19914;-63
2023/10/04 10:35:59;;;;;;;7.78;2.28;;;;;;;;;;4993674;28;20458;-63
2023/10/04 10:38:39;;;;;;;8.68;1.80;;;;;;;;;;4955040;28;20448;-63
2023/10/04 10:41:05;;;;;;;7.30;2.60;;;;;;;;;;4954852;28;20059;-66
2023/10/04 10:43:31;;;;;;;8.48;2.13;;;;;;;;;;4954835;29;20091;-68
2023/10/04 10:45:57;;;;;;;7.93;1.92;;;;;;;;;;4954838;28;20078;-68
2023/10/04 10:48:33;;;;;;;7.00;2.38;;;;;;;;;;4955025;28;20027;-62
2023/10/04 10:50:59;;;;;;;6.47;1.85;;;;;;;;;;4954715;28;20532;-63
2023/10/04 10:53:26;;;;;;;6.38;1.98;;;;;;;;;;4954898;28;20031;-64
2023/10/04 10:55:51;;;;;;;7.28;2.20;;;;;;;;;;4974123;28;20027;-63
2023/10/04 10:58:17;;;;;;;4.85;1.70;;;;;;;;;;4974091;28;20435;-63
2023/10/04 11:00:42;;;;;;;7.97;1.90;;;;;;;;;;4973046;28;20428;-66
2023/10/04 11:03:11;;;;;;;10.18;2.28;;;;;;;;;;4973689;28;20058;-63
2023/10/04 11:05:37;;;;;;;4.80;1.80;;;;;;;;;;4973982;28;20038;-66
2023/10/04 11:08:07;;;;;;;8.30;2.05;;;;;;;;;;4975132;28;20054;-63
2023/10/04 11:10:38;;;;;;;7.68;2.33;;;;;;;;;;4973955;28;20041;-64
2023/10/04 11:13:08;;;;;;;7.85;2.28;;;;;;;;;;4973492;28;20503;-62
2023/10/04 11:15:34;;;;;;;4.68;1.83;;;;;;;;;;4982724;28;20395;-67
2023/10/04 11:18:00;;;;;;;6.85;2.33;;;;;;;;;;4993451;28;20030;-68
2023/10/04 11:20:27;;;;;;;7.85;2.45;;;;;;;;;;4993275;28;20050;-68
2023/10/04 11:22:55;;;;;;;7.43;2.30;;;;;;;;;;4993019;28;20058;-67
2023/10/04 11:25:20;;;;;;;10.48;2.42;;;;;;;;;;4987029;28;20042;-68
2023/10/04 11:27:47;;;;;;;10.40;2.20;;;;;;;;;;4973293;28;20023;-68
2023/10/04 11:30:16;;;;;;;7.68;2.10;;;;;;;;;;4973546;28;20045;-67
2023/10/04 11:32:45;;;;;;;8.13;2.10;;;;;;;;;;4991924;28;20061;-67
2023/10/04 11:35:11;;;;;;;8.93;2.30;;;;;;;;;;4993031;28;20053;-70
2023/10/04 11:37:40;;;;;;;8.10;2.00;;;;;;;;;;4979162;28;20023;-69
2023/10/04 11:40:16;;;;;;;8.05;1.90;;;;;;;;;;4973687;28;20027;-69
2023/10/04 11:42:41;;;;;;;10.77;2.08;;;;;;;;;;4973747;28;20026;-69
2023/10/04 11:45:23;;;;;;;7.68;2.00;;;;;;;;;;4973256;28;20392;-68
2023/10/04 11:48:05;;;;;;;7.50;1.98;;;;;;;;;;4973637;28;20018;-68
2023/10/04 11:50:47;;;;;;;8.63;2.25;;;;;;;;;;4973472;28;20033;-69
2023/10/04 11:53:38;;;;;;;8.95;1.95;;;;;;;;;;4973348;28;20077;-68
2023/10/04 11:56:06;;;;;;;10.10;2.50;;;;;;;;;;4953970;28;20028;-67
2023/10/04 11:58:42;;;;;;;3.13;1.50;;;;;;;;;;4954093;28;20404;-66
2023/10/04 12:01:08;;;;;;;7.32;1.75;;;;;;;;;;4969545;28;20528;-69
2023/10/04 12:03:36;;;;;;;4.75;1.45;;;;;;;;;;4973461;28;20031;-70
2023/10/04 12:06:02;;;;;;;7.75;1.90;;;;;;;;;;4973178;28;20034;-70
2023/10/04 12:08:28;;;;;;;7.10;1.67;;;;;;;;;;4974315;28;20034;-66
2023/10/04 12:10:55;;;;;;;12.20;2.22;;;;;;;;;;4973362;28;20023;-69
2023/10/04 12:13:21;;;;;;;14.13;2.08;;;;;;;;;;4975781;28;20114;-67
2023/10/04 12:15:46;;;;;;;11.23;1.83;;;;;;;;;;4987670;28;20069;-69
2023/10/04 12:18:15;;;;;;;8.38;2.17;;;;;;;;;;4996455;28;20463;-68
2023/10/04 12:20:44;;;;;;;7.47;1.90;;;;;;;;;;4996310;28;20042;-69
2023/10/04 12:23:11;;;;;;;7.68;1.92;;;;;;;;;;4995355;28;20470;-69
2023/10/04 12:25:42;;;;;;;7.20;2.03;;;;;;;;;;4987955;28;20027;-67
2023/10/04 12:28:08;;;;;;;9.07;2.75;;;;;;;;;;4976580;28;20046;-69
2023/10/04 12:30:37;;;;;;;10.85;1.95;;;;;;;;;;4977818;28;20078;-68
2023/10/04 12:33:04;;;;;;;10.43;2.13;;;;;;;;;;4995636;28;20018;-68
2023/10/04 12:35:30;;;;;;;7.65;2.17;;;;;;;;;;4996029;28;20468;-69
2023/10/04 12:37:56;;;;;;;7.38;1.90;;;;;;;;;;4979563;28;20038;-68
2023/10/04 12:40:24;;;;;;;7.90;1.98;;;;;;;;;;4976456;28;20031;-69
2023/10/04 12:42:51;;;;;;;9.77;2.30;;;;;;;;;;4976094;28;20473;-68
2023/10/04 12:45:17;;;;;;;8.27;1.83;;;;;;;;;;4976292;28;20491;-68
2023/10/04 12:47:42;;;;;;;7.57;1.80;;;;;;;;;;4976284;28;20027;-68
2023/10/04 12:50:10;;;;;;;8.27;1.95;;;;;;;;;;4976296;28;20049;-68
2023/10/04 12:52:40;;;;;;;8.43;2.30;;;;;;;;;;4976424;28;20026;-68
2023/10/04 12:55:06;;;;;;;7.25;1.98;;;;;;;;;;4975882;28;20039;-66
2023/10/04 12:57:33;;;;;;;6.57;1.52;;;;;;;;;;4975917;28;20031;-68
2023/10/04 12:59:59;;;;;;;7.38;2.05;;;;;;;;;;4975864;28;20476;-68
2023/10/04 13:02:25;;;;;;;4.70;1.88;;;;;;;;;;4975875;28;20106;-68
2023/10/04 13:04:51;;;;;;;7.15;2.00;;;;;;;;;;4975860;28;20027;-68
2023/10/04 13:07:18;;;;;;;6.88;1.90;;;;;;;;;;4976989;28;20512;-69
2023/10/04 13:09:44;;;;;;;6.22;1.75;;;;;;;;;;4976065;28;20054;-70
2023/10/04 13:12:11;;;;;;;9.68;2.05;;;;;;;;;;4974156;28;20027;-69
2023/10/04 13:14:37;;;;;;;9.15;2.00;;;;;;;;;;4977166;28;20026;-69
2023/10/04 13:17:05;;;;;;;5.85;1.55;;;;;;;;;;4995061;28;20033;-68
2023/10/04 13:19:32;;;;;;;9.05;2.10;;;;;;;;;;4995159;28;20034;-67
2023/10/04 13:21:58;;;;;;;6.20;1.90;;;;;;;;;;4995213;28;20093;-68
2023/10/04 13:24:23;;;;;;;9.40;2.38;;;;;;;;;;4994330;28;20127;-68
2023/10/04 13:26:49;;;;;;;6.13;2.10;;;;;;;;;;4976867;28;20026;-70
2023/10/04 13:29:14;;;;;;;7.65;1.90;;;;;;;;;;4974231;28;20027;-68
2023/10/04 13:31:41;;;;;;;8.52;1.98;;;;;;;;;;4985351;28;20023;-69
2023/10/04 13:34:07;;;;;;;9.20;2.30;;;;;;;;;;4994217;28;20035;-67
2023/10/04 13:36:34;;;;;;;9.27;2.10;;;;;;;;;;4989536;28;20505;-61
2023/10/04 13:39:01;;;;;;;10.35;2.30;;;;;;;;;;4975235;28;20089;-62
2023/10/04 13:41:26;;;;;;;4.50;1.42;;;;;;;;;;4973812;28;20471;-64
2023/10/04 13:43:52;;;;;;;8.40;1.98;;;;;;;;;;4975277;28;20030;-61
2023/10/04 13:46:18;;;;;;;8.93;2.85;;;;;;;;;;4975230;28;20027;-63
2023/10/04 13:48:44;;;;;;;6.55;1.70;;;;;;;;;;4975100;28;20432;-62
2023/10/04 13:51:10;;;;;;;8.93;1.90;;;;;;;;;;4974396;28;20042;-63
2023/10/04 13:53:37;;;;;;;9.32;2.00;;;;;;;;;;4974981;28;20046;-62
2023/10/04 13:56:05;;;;;;;6.68;2.08;;;;;;;;;;4974603;28;20082;-62
2023/10/04 13:58:31;;;;;;;9.10;2.00;;;;;;;;;;4975039;28;20034;-63
2023/10/04 14:01:02;;;;;;;6.82;1.90;;;;;;;;;;4975008;28;20388;-63
2023/10/04 14:03:27;;;;;;;6.38;1.98;;;;;;;;;;4973886;28;20428;-63
2023/10/04 14:05:58;;;;;;;9.13;2.30;;;;;;;;;;4975083;28;20040;-62
2023/10/04 14:08:24;;;;;;;4.93;1.70;;;;;;;;;;4975902;28;20079;-64
2023/10/04 14:10:49;;;;;;;7.35;1.88;;;;;;;;;;4974565;28;20027;-63
2023/10/04 14:13:15;;;;;;;6.80;1.88;;;;;;;;;;4974479;28;20436;-62
2023/10/04 14:15:40;;;;;;;10.85;3.20;;;;;;;;;;4984577;28;20038;-63
2023/10/04 14:18:07;;;;;;;10.68;1.98;;;;;;;;;;4994266;28;20028;-63
2023/10/04 14:20:32;;;;;;;8.50;1.95;;;;;;;;;;4994058;28;20054;-62
2023/10/04 14:22:58;;;;;;;9.75;2.30;;;;;;;;;;4993572;28;20538;-63
2023/10/04 14:25:24;;;;;;;8.70;2.58;;;;;;;;;;4986810;28;20063;-62
2023/10/04 14:27:50;;;;;;;11.55;2.28;;;;;;;;;;4974505;28;20472;-62
2023/10/04 14:30:22;;;;;;;7.20;1.83;;;;;;;;;;4974459;28;20026;-63
2023/10/04 14:32:47;;;;;;;11.90;2.40;;;;;;;;;;4993314;28;20065;-63
2023/10/04 14:35:13;;;;;;;6.97;2.10;;;;;;;;;;4993150;28;20062;-64
2023/10/04 14:37:39;;;;;;;9.57;2.10;;;;;;;;;;4979475;28;20105;-63
2023/10/04 14:40:22;;;;;;;6.47;2.47;;;;;;;;;;4973984;28;20067;-63
2023/10/04 14:42:49;;;;;;;7.55;2.38;;;;;;;;;;4974186;28;20022;-63
2023/10/04 14:45:16;;;;;;;8.73;1.75;;;;;;;;;;4974038;28;20030;-64
2023/10/04 14:47:41;;;;;;;7.63;2.13;;;;;;;;;;4974098;28;20035;-63
2023/10/04 14:50:09;;;;;;;5.65;1.75;;;;;;;;;;4974135;28;20495;-62
2023/10/04 14:52:38;;;;;;;11.70;2.40;;;;;;;;;;4973991;28;20520;-64
2023/10/04 14:55:06;;;;;;;9.65;2.50;;;;;;;;;;4973716;28;20042;-62
2023/10/04 14:57:37;;;;;;;8.15;2.25;;;;;;;;;;4974020;28;20031;-62